CheckWX is a tool to help pilots better visualize weather data.  It is not intended as a substitute for an official pre-flight weather briefing.

21:36:16 UTC

SACO TAF
Ingeniero Ambrosio Taravella Airport
Cordoba, Argentina
TAF SACO 201700Z 2018/2118 09010KT 9999 BKN020 TX22/2118Z TN09/2110Z BECMG 2103/2406 32005KT CAVOK PROB40 TEMPO 2109/2112 34005KT 5000 BR NSC BECMG 2114/2116 05015KT CAVOK

Mar-20@
18:00 UTC

Mar-20 @ 18:00 UTC

Mar-21@
03:00 UTC

Mar-21 @ 03:00 UTC

TAF SACO 201700Z 2018/2118 09010KT 9999 BKN020 TX22/2118Z TN09/2110Z
Wind
  • 090° at 10 KTS
Cloud Levels
  • Broken at 2,000' AGL

Mar-21@
03:00 UTC

Mar-21 @ 03:00 UTC

Mar-21@
14:00 UTC

Mar-21 @ 14:00 UTC

BECMG 2103/2406 32005KT CAVOK

Becoming

Becoming Conditions expected by Sun, Mar 24, 2019 @ 06:00 UTC

Wind
  • 320° at 5 KTS
Conditions
No significant weather
Cloud Levels
  • No significant clouds

Mar-21@
09:00 UTC

Mar-21 @ 09:00 UTC

Mar-21@
12:00 UTC

Mar-21 @ 12:00 UTC

PROB40 TEMPO 2109/2112 34005KT 5000 BR NSC

Temporary - 40% Likelihood

Temporary - 40% Likelihood during this time.

Wind
  • 340° at 5 KTS
Conditions
Mist
Cloud Levels
  • No significant clouds

Mar-21@
14:00 UTC

Mar-21 @ 14:00 UTC

Mar-21@
18:00 UTC

Mar-21 @ 18:00 UTC

BECMG 2114/2116 05015KT CAVOK

Becoming

Becoming Conditions expected by Thu, Mar 21, 2019 @ 16:00 UTC

Wind
  • 050° at 15 KTS
Conditions
No significant weather
Cloud Levels
  • No significant clouds